Time;durP1;ratioP1;P1;durP2;ratioP2;P2;SDS_P1;SDS_P2;PMS_P1;PMS_P2;Temp;Humidity;BMP_temperature;BMP_pressure;BME280_temperature;BME280_humidity;BME280_pressure;Samples;Min_cycle;Max_cycle;Signal;HPM_P1;HPM_P2
2022/03/15 00:00:37;;;;;;;;;;;;;;;1.29;84.18;101747.63;5077635;28;1326;-90
2022/03/15 00:03:02;;;;;;;;;;;;;;;1.08;84.57;101751.13;5069705;28;1480;-89
2022/03/15 00:05:27;;;;;;;;;;;;;;;1.07;84.86;101757.53;5078296;28;1415;-89
2022/03/15 00:07:53;;;;;;;;;;;;;;;1.30;86.02;101755.53;5096279;28;825;-89
2022/03/15 00:10:18;;;;;;;;;;;;;;;1.51;87.03;101757.47;5077799;28;1898;-90
2022/03/15 00:12:44;;;;;;;;;;;;;;;1.59;86.76;101761.91;5078002;28;1273;-89
2022/03/15 00:15:10;;;;;;;;;;;;;;;1.52;86.07;101768.06;5077766;28;1495;-89
2022/03/15 00:17:39;;;;;;;;;;;;;;;1.51;86.06;101770.97;5078074;28;1252;-89
2022/03/15 00:20:05;;;;;;;;;;;;;;;1.51;85.98;101776.34;5065002;28;1422;-90
2022/03/15 00:22:35;;;;;;;;;;;;;;;1.59;85.47;101778.94;5076100;28;1243;-90
2022/03/15 00:25:02;;;;;;;;;;;;;;;1.65;85.71;101785.44;5059089;28;1385;-89
2022/03/15 00:27:27;;;;;;;;;;;;;;;1.67;85.76;101776.13;5058352;28;1429;-90
2022/03/15 00:29:52;;;;;;;;;;;;;;;1.66;85.70;101779.84;5078155;28;1960;-90
2022/03/15 00:32:19;;;;;;;;;;;;;;;1.58;85.12;101779.13;5077694;28;1287;-90
2022/03/15 00:34:44;;;;;;;;;;;;;;;1.38;85.27;101774.31;5077593;28;1235;-90
2022/03/15 00:37:10;;;;;;;;;;;;;;;1.29;85.34;101778.16;5076803;28;1197;-90
2022/03/15 00:39:35;;;;;;;;;;;;;;;1.10;84.96;101773.34;5077836;28;1493;-91
2022/03/15 00:42:00;;;;;;;;;;;;;;;0.97;85.80;101775.84;5077549;28;1295;-89
2022/03/15 00:44:25;;;;;;;;;;;;;;;0.77;85.65;101776.41;5095408;28;1122;-90
2022/03/15 00:46:52;;;;;;;;;;;;;;;0.92;85.88;101781.81;5077570;28;1212;-90
2022/03/15 00:49:17;;;;;;;;;;;;;;;1.07;86.00;101777.25;5077754;28;1894;-90
2022/03/15 00:51:43;;;;;;;;;;;;;;;1.03;85.49;101781.34;5076136;28;1312;-89
2022/03/15 00:54:08;;;;;;;;;;;;;;;0.95;85.72;101781.44;5056549;28;1393;-89
2022/03/15 00:56:33;;;;;;;;;;;;;;;0.97;85.65;101783.94;5056698;28;1018;-90
2022/03/15 00:58:58;;;;;;;;;;;;;;;1.01;86.11;101775.31;5057260;28;1249;-90
2022/03/15 01:01:24;;;;;;;;;;;;;;;0.99;86.49;101780.06;5077908;28;1437;-89
2022/03/15 01:03:50;;;;;;;;;;;;;;;1.01;86.14;101775.31;5078226;28;1348;-89
2022/03/15 01:06:15;;;;;;;;;;;;;;;0.99;86.35;101769.25;5077979;28;1694;-90
2022/03/15 01:08:40;;;;;;;;;;;;;;;0.94;86.53;101774.38;5094687;28;1898;-89
2022/03/15 01:11:06;;;;;;;;;;;;;;;0.94;86.14;101770.81;5076584;28;1202;-89
2022/03/15 01:13:31;;;;;;;;;;;;;;;0.97;85.65;101783.94;5076779;28;1273;-89
2022/03/15 01:15:56;;;;;;;;;;;;;;;0.92;85.75;101781.81;5076540;28;975;-89
2022/03/15 01:18:22;;;;;;;;;;;;;;;0.90;85.87;101774.94;5076482;28;1329;-89
2022/03/15 01:20:47;;;;;;;;;;;;;;;1.02;85.92;101773.47;5094768;28;1446;-89
2022/03/15 01:23:13;;;;;;;;;;;;;;;1.13;86.13;101768.41;5076650;28;1173;-88
2022/03/15 01:25:39;;;;;;;;;;;;;;;1.07;86.25;101771.88;5094282;28;844;-89
2022/03/15 01:28:04;;;;;;;;;;;;;;;1.00;86.11;101775.50;5072106;28;1673;-89
2022/03/15 01:30:30;;;;;;;;;;;;;;;0.81;86.01;101766.09;5073942;28;1898;-89
2022/03/15 01:32:56;;;;;;;;;;;;;;;0.65;86.07;101772.50;5076040;28;1332;-89
2022/03/15 01:35:21;;;;;;;;;;;;;;;0.83;86.50;101779.41;5075949;28;1438;-89
2022/03/15 01:37:46;;;;;;;;;;;;;;;0.94;86.63;101782.44;5076191;28;1243;-89
2022/03/15 01:40:12;;;;;;;;;;;;;;;1.02;86.40;101773.47;5076352;28;1022;-88
2022/03/15 01:42:38;;;;;;;;;;;;;;;1.13;86.13;101770.25;5076168;28;1494;-88
2022/03/15 01:45:03;;;;;;;;;;;;;;;1.22;85.66;101768.31;5076063;28;1164;-89
2022/03/15 01:47:28;;;;;;;;;;;;;;;1.15;85.35;101760.13;5094331;28;985;-88
2022/03/15 01:49:54;;;;;;;;;;;;;;;0.89;85.40;101766.00;5076030;28;1959;-89
2022/03/15 01:52:19;;;;;;;;;;;;;;;0.96;85.72;101768.78;5076213;28;1286;-89
2022/03/15 01:54:44;;;;;;;;;;;;;;;1.02;85.65;101762.69;5076175;28;1358;-88
2022/03/15 01:57:09;;;;;;;;;;;;;;;1.02;85.79;101757.28;5076226;28;983;-88
2022/03/15 01:59:35;;;;;;;;;;;;;;;0.81;85.12;101755.31;5076069;28;1290;-89
2022/03/15 02:02:00;;;;;;;;;;;;;;;0.73;85.05;101756.25;5073342;28;1451;-89
2022/03/15 02:04:25;;;;;;;;;;;;;;;0.70;84.84;101764.69;5073748;28;991;-89
2022/03/15 02:07:00;;;;;;;;;;;;;;;0.73;85.52;101764.34;5055884;28;1005;-90
2022/03/15 02:09:25;;;;;;;;;;;;;;;0.64;85.48;101754.66;5064535;28;1894;-90
2022/03/15 02:11:50;;;;;;;;;;;;;;;0.63;85.86;101747.59;5075756;28;1007;-89
2022/03/15 02:14:15;;;;;;;;;;;;;;;0.59;85.22;101749.00;5075551;28;1232;-89
2022/03/15 02:16:40;;;;;;;;;;;;;;;0.62;85.26;101756.69;5075772;28;1081;-89
2022/03/15 02:19:05;;;;;;;;;;;;;;;0.63;85.56;101750.28;5094007;28;912;-89
2022/03/15 02:21:31;;;;;;;;;;;;;;;0.73;86.02;101739.25;5076045;28;1516;-88
2022/03/15 02:23:56;;;;;;;;;;;;;;;0.78;85.98;101753.00;5075877;28;1239;-89
2022/03/15 02:26:22;;;;;;;;;;;;;;;0.74;85.90;101754.41;5075742;28;1225;-90
2022/03/15 02:28:47;;;;;;;;;;;;;;;0.72;85.89;101756.44;5093502;28;1894;-89
2022/03/15 02:31:12;;;;;;;;;;;;;;;0.73;86.01;101748.16;5075798;28;1163;-89
2022/03/15 02:33:37;;;;;;;;;;;;;;;0.75;86.12;101748.00;5075621;28;1226;-89
2022/03/15 02:36:03;;;;;;;;;;;;;;;0.68;86.15;101747.88;5069816;28;1376;-89
2022/03/15 02:38:28;;;;;;;;;;;;;;;0.75;86.13;101742.59;5057030;28;1385;-89
2022/03/15 02:40:53;;;;;;;;;;;;;;;0.79;86.28;101734.97;5059873;28;1309;-89
2022/03/15 02:43:18;;;;;;;;;;;;;;;0.74;86.02;101732.84;5055315;28;1382;-89
2022/03/15 02:45:44;;;;;;;;;;;;;;;0.75;86.10;101729.13;5055558;28;1234;-88
2022/03/15 02:48:09;;;;;;;;;;;;;;;0.80;86.10;101728.56;5064911;28;1509;-89
2022/03/15 02:50:34;;;;;;;;;;;;;;;0.87;86.53;101724.91;5075444;28;1957;-89
2022/03/15 02:52:59;;;;;;;;;;;;;;;0.86;86.38;101733.19;5072758;28;1317;-89
2022/03/15 02:55:25;;;;;;;;;;;;;;;0.86;86.05;101731.31;5055407;28;1055;-89
2022/03/15 02:57:50;;;;;;;;;;;;;;;0.71;85.96;101722.41;5072052;28;1230;-89
2022/03/15 03:00:17;;;;;;;;;;;;;;;0.26;86.44;101729.63;5076209;28;1435;-90
2022/03/15 03:02:42;;;;;;;;;;;;;;;0.24;87.04;101723.59;5060696;28;1341;-89
2022/03/15 03:05:08;;;;;;;;;;;;;;;0.20;87.11;101721.44;5063383;28;1518;-89
2022/03/15 03:07:36;;;;;;;;;;;;;;;0.38;87.07;101720.09;5079483;28;1269;-89
2022/03/15 03:10:02;;;;;;;;;;;;;;;0.50;86.67;101717.78;5078599;28;1961;-89
2022/03/15 03:12:27;;;;;;;;;;;;;;;0.55;86.46;101725.31;5070586;28;1409;-89
2022/03/15 03:14:52;;;;;;;;;;;;;;;0.61;86.79;101719.16;5066683;28;1257;-89
2022/03/15 03:17:18;;;;;;;;;;;;;;;0.50;86.66;101720.47;5058990;28;1278;-89
2022/03/15 03:19:43;;;;;;;;;;;;;;;0.45;86.85;101722.88;5076785;28;805;-89
2022/03/15 03:22:10;;;;;;;;;;;;;;;0.62;86.98;101718.16;5058433;28;1259;-89
2022/03/15 03:24:35;;;;;;;;;;;;;;;0.69;86.81;101722.59;5058130;28;1274;-89
2022/03/15 03:27:00;;;;;;;;;;;;;;;0.76;86.62;101717.31;5076931;28;1383;-89
2022/03/15 03:29:26;;;;;;;;;;;;;;;0.73;86.58;101720.38;5096913;28;1951;-89
2022/03/15 03:31:51;;;;;;;;;;;;;;;0.62;86.71;101710.91;5096778;28;857;-89
2022/03/15 03:34:16;;;;;;;;;;;;;;;0.62;86.57;101710.06;5079410;28;1173;-89
2022/03/15 03:36:41;;;;;;;;;;;;;;;0.60;86.77;101704.84;5078303;28;1251;-89
2022/03/15 03:39:07;;;;;;;;;;;;;;;0.42;86.85;101712.50;5078086;28;1266;-89
2022/03/15 03:41:32;;;;;;;;;;;;;;;0.40;87.28;101708.28;5096152;28;1556;-90
2022/03/15 03:43:58;;;;;;;;;;;;;;;0.45;87.18;101709.41;5077797;28;1255;-90
2022/03/15 03:46:23;;;;;;;;;;;;;;;0.47;87.37;101715.44;5078107;28;1370;-90
2022/03/15 03:48:50;;;;;;;;;;;;;;;0.46;87.59;101708.38;5078035;28;2336;-89
2022/03/15 03:51:15;;;;;;;;;;;;;;;0.52;87.50;101709.50;5078197;28;1399;-90
2022/03/15 03:53:40;;;;;;;;;;;;;;;0.46;87.21;101702.16;5077604;28;1455;-90
2022/03/15 03:56:05;;;;;;;;;;;;;;;0.44;87.35;101704.19;5078154;28;1323;-90
2022/03/15 03:58:31;;;;;;;;;;;;;;;0.41;86.96;101699.19;5078031;28;1168;-90
2022/03/15 04:00:56;;;;;;;;;;;;;;;0.29;87.26;101702.34;5095765;28;1434;-89
2022/03/15 04:03:22;;;;;;;;;;;;;;;0.31;87.35;101704.84;5077721;28;1177;-89
2022/03/15 04:05:48;;;;;;;;;;;;;;;0.46;87.76;101699.47;5078756;28;1382;-91
2022/03/15 04:08:13;;;;;;;;;;;;;;;0.40;87.54;101705.59;5078575;28;1533;-91
2022/03/15 04:10:39;;;;;;;;;;;;;;;0.27;87.42;101703.53;5078029;28;1973;-91
2022/03/15 04:13:06;;;;;;;;;;;;;;;0.37;87.71;101702.25;5077661;28;1209;-91
2022/03/15 04:15:32;;;;;;;;;;;;;;;0.38;87.65;101703.94;5097100;28;889;-91
2022/03/15 04:17:57;;;;;;;;;;;;;;;0.39;87.58;101702.06;5078047;28;1281;-91
2022/03/15 04:20:23;;;;;;;;;;;;;;;0.43;87.43;101706.06;5077719;28;1484;-92
2022/03/15 04:22:48;;;;;;;;;;;;;;;0.42;87.44;101698.19;5096265;28;1204;-91
2022/03/15 04:25:14;;;;;;;;;;;;;;;0.38;87.43;101700.41;5077163;28;1430;-91
2022/03/15 04:27:39;;;;;;;;;;;;;;;0.40;87.47;101702.91;5077950;28;1235;-92
2022/03/15 04:30:05;;;;;;;;;;;;;;;0.47;87.65;101704.69;5077993;28;1959;-91
2022/03/15 04:32:30;;;;;;;;;;;;;;;0.50;87.44;101698.94;5077299;28;1446;-90
2022/03/15 04:34:56;;;;;;;;;;;;;;;0.64;87.42;101706.16;5068687;28;1287;-92
2022/03/15 04:37:23;;;;;;;;;;;;;;;0.73;87.23;101710.44;5061574;28;1325;-90
2022/03/15 04:39:50;;;;;;;;;;;;;;;0.69;87.36;101703.75;5069095;28;1405;-91
2022/03/15 04:42:15;;;;;;;;;;;;;;;0.55;87.47;101701.88;5074877;28;1221;-90
2022/03/15 04:44:40;;;;;;;;;;;;;;;0.49;87.68;101710.72;5076757;28;1568;-91
2022/03/15 04:47:06;;;;;;;;;;;;;;;0.55;87.94;101704.59;5095090;28;844;-91
2022/03/15 04:49:31;;;;;;;;;;;;;;;0.60;88.18;101695.94;5076906;28;1889;-91
2022/03/15 04:51:56;;;;;;;;;;;;;;;0.59;88.36;101694.28;5076604;28;1470;-91
2022/03/15 04:54:22;;;;;;;;;;;;;;;0.44;88.30;101688.88;5077238;28;1330;-92
2022/03/15 04:56:47;;;;;;;;;;;;;;;0.51;89.04;101683.59;5077434;28;1322;-92
2022/03/15 04:59:12;;;;;;;;;;;;;;;0.55;89.02;101685.72;5062014;28;1361;-92
2022/03/15 05:01:37;;;;;;;;;;;;;;;0.51;89.17;101680.91;5056886;28;825;-92
2022/03/15 05:04:02;;;;;;;;;;;;;;;0.50;89.38;101690.84;5056552;28;1189;-91
2022/03/15 05:06:27;;;;;;;;;;;;;;;0.56;89.55;101691.97;5056873;28;1184;-91
2022/03/15 05:08:52;;;;;;;;;;;;;;;0.56;89.42;101683.88;5074124;28;1934;-91
2022/03/15 05:11:19;;;;;;;;;;;;;;;0.36;89.16;101689.81;5076477;28;1325;-92
2022/03/15 05:13:47;;;;;;;;;;;;;;;0.32;89.07;101693.06;5073834;28;1481;-90
2022/03/15 05:16:17;;;;;;;;;;;;;;;0.37;88.70;101693.34;5073933;28;1259;-91
2022/03/15 05:18:44;;;;;;;;;;;;;;;0.43;88.61;101694.44;5077149;28;1479;-91
2022/03/15 05:21:12;;;;;;;;;;;;;;;0.42;89.07;101700.88;5064134;28;1355;-92
2022/03/15 05:23:38;;;;;;;;;;;;;;;0.31;89.15;101700.31;5057090;28;1314;-92
2022/03/15 05:26:03;;;;;;;;;;;;;;;0.37;89.23;101691.47;5057584;28;1027;-91
2022/03/15 05:28:28;;;;;;;;;;;;;;;0.44;89.70;101688.88;5057603;28;1315;-92
2022/03/15 05:30:54;;;;;;;;;;;;;;;0.45;90.33;101684.31;5057323;28;1957;-91
2022/03/15 05:33:19;;;;;;;;;;;;;;;0.29;91.36;101694.25;5059360;28;1236;-91
2022/03/15 05:35:44;;;;;;;;;;;;;;;0.19;92.14;101692.84;5070034;28;1430;-91
2022/03/15 05:38:10;;;;;;;;;;;;;;;0.23;92.46;101689.63;5080749;28;1462;-92
2022/03/15 05:40:35;;;;;;;;;;;;;;;0.36;92.65;101697.88;5098835;28;1437;-90
2022/03/15 05:43:00;;;;;;;;;;;;;;;0.42;92.53;101706.25;5095308;28;1351;-89
2022/03/15 05:45:34;;;;;;;;;;;;;;;0.54;92.52;101702.06;5096268;28;1414;-88
2022/03/15 05:47:59;;;;;;;;;;;;;;;0.54;92.34;101704.75;5088403;28;1336;-89
2022/03/15 05:50:24;;;;;;;;;;;;;;;0.54;92.33;101699.38;5068319;28;1902;-90
2022/03/15 05:52:50;;;;;;;;;;;;;;;0.47;92.48;101696.59;5080916;28;1532;-90
2022/03/15 05:55:15;;;;;;;;;;;;;;;0.38;92.13;101701.22;5073873;28;1219;-89
2022/03/15 05:57:40;;;;;;;;;;;;;;;0.40;92.27;101705.59;5077058;28;1450;-90
2022/03/15 06:00:06;;;;;;;;;;;;;;;0.43;92.07;101705.22;5060548;28;1458;-88
2022/03/15 06:02:31;;;;;;;;;;;;;;;0.50;92.05;101708.88;5073274;28;1371;-88
2022/03/15 06:04:59;;;;;;;;;;;;;;;0.49;92.00;101712.56;5077106;28;1452;-88
2022/03/15 06:07:24;;;;;;;;;;;;;;;0.56;92.42;101706.25;5065050;28;1438;-89
2022/03/15 06:09:49;;;;;;;;;;;;;;;0.54;92.33;101702.06;5057852;28;1967;-88
2022/03/15 06:12:15;;;;;;;;;;;;;;;0.61;92.28;101706.53;5055969;28;1340;-88
2022/03/15 06:14:40;;;;;;;;;;;;;;;0.51;92.33;101710.53;5081208;28;1399;-88
2022/03/15 06:17:05;;;;;;;;;;;;;;;0.62;92.50;101705.50;5069349;28;1878;-89
2022/03/15 06:19:30;;;;;;;;;;;;;;;0.67;92.43;101707.66;5076490;28;1016;-88
2022/03/15 06:21:55;;;;;;;;;;;;;;;0.66;92.42;101704.13;5094595;28;1271;-89
2022/03/15 06:24:22;;;;;;;;;;;;;;;0.73;92.40;101701.53;5076370;28;845;-89
2022/03/15 06:26:47;;;;;;;;;;;;;;;0.76;92.20;101706.53;5076378;28;1085;-89
2022/03/15 06:29:13;;;;;;;;;;;;;;;0.76;91.98;101711.94;5075961;28;2026;-89
2022/03/15 06:31:38;;;;;;;;;;;;;;;0.69;91.86;101708.28;5076627;28;1179;-89
2022/03/15 06:34:06;;;;;;;;;;;;;;;0.73;91.56;101709.59;5094613;28;1255;-89
2022/03/15 06:36:34;;;;;;;;;;;;;;;0.77;91.69;101715.47;5080061;28;1291;-89
2022/03/15 06:38:59;;;;;;;;;;;;;;;0.79;91.66;101710.72;5080340;28;1242;-88
2022/03/15 06:41:24;;;;;;;;;;;;;;;0.81;91.50;101711.38;5080515;28;1187;-89
2022/03/15 06:43:50;;;;;;;;;;;;;;;0.98;91.49;101702.06;5080182;28;1271;-88
2022/03/15 06:46:15;;;;;;;;;;;;;;;1.07;91.03;101706.31;5097846;28;768;-88
2022/03/15 06:48:40;;;;;;;;;;;;;;;1.13;91.03;101702.84;5098072;28;1004;-89
2022/03/15 06:51:05;;;;;;;;;;;;;;;1.16;91.06;101698.94;5097596;28;1885;-88
2022/03/15 06:53:31;;;;;;;;;;;;;;;1.17;90.97;101695.22;5079520;28;1243;-87
2022/03/15 06:55:56;;;;;;;;;;;;;;;1.29;91.23;101704.47;5079545;28;1264;-88
2022/03/15 06:58:21;;;;;;;;;;;;;;;1.33;91.49;101692.31;5079716;28;972;-88
2022/03/15 07:00:47;;;;;;;;;;;;;;;1.26;91.48;101684.16;5080033;28;1256;-88
2022/03/15 07:03:12;;;;;;;;;;;;;;;1.31;91.53;101691.66;5098967;28;1267;-88
2022/03/15 07:05:38;;;;;;;;;;;;;;;1.35;91.76;101690.25;5080215;28;1400;-88
2022/03/15 07:08:03;;;;;;;;;;;;;;;1.39;92.01;101678.03;5079518;28;1385;-88
2022/03/15 07:10:28;;;;;;;;;;;;;;;1.48;91.96;101693.91;5097379;28;1890;-87
2022/03/15 07:12:53;;;;;;;;;;;;;;;1.50;91.95;101688.34;5097269;28;1334;-88
2022/03/15 07:15:20;;;;;;;;;;;;;;;1.58;91.83;101676.59;5078963;28;1230;-88
2022/03/15 07:17:50;;;;;;;;;;;;;;;1.53;92.04;101679.88;5078906;28;1710;-87
2022/03/15 07:20:15;;;;;;;;;;;;;;;1.62;91.92;101685.94;5079000;28;1326;-88
2022/03/15 07:22:41;;;;;;;;;;;;;;;1.59;92.13;101679.09;5078845;28;1345;-89
2022/03/15 07:25:06;;;;;;;;;;;;;;;1.60;92.29;101679.94;5096431;28;690;-88
2022/03/15 07:27:31;;;;;;;;;;;;;;;1.62;92.47;101672.44;5078271;28;1328;-88
2022/03/15 07:29:56;;;;;;;;;;;;;;;1.64;92.18;101673.09;5078636;28;1893;-89
2022/03/15 07:32:21;;;;;;;;;;;;;;;1.69;92.14;101674.22;5096580;28;1215;-89
2022/03/15 07:34:49;;;;;;;;;;;;;;;1.74;92.14;101679.00;5096572;28;808;-88
2022/03/15 07:37:14;;;;;;;;;;;;;;;1.69;92.63;101660.72;5078601;28;1341;-88
2022/03/15 07:39:40;;;;;;;;;;;;;;;1.69;92.45;101668.81;5078319;28;1267;-88
2022/03/15 07:42:05;;;;;;;;;;;;;;;1.71;92.39;101660.50;5078309;28;1272;-88
2022/03/15 07:44:30;;;;;;;;;;;;;;;1.81;92.17;101661.84;5078198;28;1004;-89
2022/03/15 07:46:55;;;;;;;;;;;;;;;1.84;92.50;101666.03;5078183;28;960;-89
2022/03/15 07:49:20;;;;;;;;;;;;;;;1.92;92.45;101662.34;5078442;28;1960;-89
2022/03/15 07:51:46;;;;;;;;;;;;;;;1.96;92.48;101664.44;5078172;28;1191;-89
2022/03/15 07:54:12;;;;;;;;;;;;;;;2.04;92.08;101666.19;5077861;28;1326;-89
2022/03/15 07:56:37;;;;;;;;;;;;;;;2.02;91.70;101665.56;5096305;28;821;-88
2022/03/15 07:59:02;;;;;;;;;;;;;;;2.03;91.96;101664.53;5078342;28;1259;-88
2022/03/15 08:01:28;;;;;;;;;;;;;;;2.12;91.91;101669.59;5078394;28;1077;-88
2022/03/15 08:03:53;;;;;;;;;;;;;;;2.16;91.65;101665.44;5078034;28;1271;-88
2022/03/15 08:06:18;;;;;;;;;;;;;;;2.18;91.44;101667.97;5078011;28;1349;-89
2022/03/15 08:08:43;;;;;;;;;;;;;;;2.24;91.72;101670.69;5096037;28;1055;-89
2022/03/15 08:11:09;;;;;;;;;;;;;;;2.26;91.25;101665.94;5077989;28;1949;-88
2022/03/15 08:13:34;;;;;;;;;;;;;;;2.23;91.35;101660.09;5078110;28;1255;-89
2022/03/15 08:15:59;;;;;;;;;;;;;;;2.25;91.56;101655.31;5096028;28;931;-89
2022/03/15 08:18:25;;;;;;;;;;;;;;;2.32;91.39;101653.50;5077748;28;1176;-88
2022/03/15 08:20:51;;;;;;;;;;;;;;;2.41;91.57;101655.00;5077706;28;1258;-88
2022/03/15 08:23:17;;;;;;;;;;;;;;;2.54;91.50;101657.81;5095386;28;1164;-89
2022/03/15 08:25:42;;;;;;;;;;;;;;;2.63;91.22;101656.63;5077481;28;1220;-89
2022/03/15 08:28:07;;;;;;;;;;;;;;;2.69;91.46;101652.25;5077339;28;933;-89
2022/03/15 08:30:32;;;;;;;;;;;;;;;2.73;91.29;101653.50;5077565;28;1948;-89
2022/03/15 08:32:58;;;;;;;;;;;;;;;2.79;90.89;101643.78;5077156;28;1306;-89
2022/03/15 08:35:23;;;;;;;;;;;;;;;2.87;90.97;101646.31;5077132;28;1303;-89
2022/03/15 08:37:50;;;;;;;;;;;;;;;2.86;90.78;101645.47;5095392;28;805;-89
2022/03/15 08:40:16;;;;;;;;;;;;;;;2.92;90.84;101635.72;5095545;28;845;-89
2022/03/15 08:42:41;;;;;;;;;;;;;;;2.99;90.96;101634.69;5077148;28;1204;-89
2022/03/15 08:45:08;;;;;;;;;;;;;;;3.08;90.97;101637.22;5076854;28;1267;-89
2022/03/15 08:47:33;;;;;;;;;;;;;;;3.07;90.70;101624.72;5076978;28;1334;-89
2022/03/15 08:49:58;;;;;;;;;;;;;;;2.98;90.66;101630.31;5076978;28;1901;-89
2022/03/15 08:52:23;;;;;;;;;;;;;;;3.08;90.37;101621.00;5076685;28;1224;-89
2022/03/15 08:54:49;;;;;;;;;;;;;;;3.15;90.18;101617.25;5094926;28;1042;-89
2022/03/15 08:57:15;;;;;;;;;;;;;;;3.21;90.03;101616.47;5076319;28;933;-89
2022/03/15 08:59:40;;;;;;;;;;;;;;;3.31;90.30;101613.38;5076927;28;1293;-87
2022/03/15 09:02:08;;;;;;;;;;;;;;;3.36;90.19;101617.13;5076859;28;1234;-89
2022/03/15 09:04:33;;;;;;;;;;;;;;;3.41;90.14;101611.06;5076616;28;1176;-88
2022/03/15 09:06:59;;;;;;;;;;;;;;;3.48;89.99;101611.94;5094783;28;672;-89
2022/03/15 09:09:25;;;;;;;;;;;;;;;3.59;90.08;101605.03;5077200;28;1898;-89
2022/03/15 09:11:50;;;;;;;;;;;;;;;3.63;90.09;101596.31;5076628;28;1191;-89
2022/03/15 09:14:16;;;;;;;;;;;;;;;3.68;89.66;101595.69;5076242;28;1268;-89
2022/03/15 09:16:41;;;;;;;;;;;;;;;3.73;89.71;101590.50;5094672;28;999;-89
2022/03/15 09:19:08;;;;;;;;;;;;;;;3.76;89.26;101588.19;5079774;28;1325;-89
2022/03/15 09:21:33;;;;;;;;;;;;;;;3.80;89.22;101586.72;5077845;28;1203;-88
2022/03/15 09:23:58;;;;;;;;;;;;;;;3.89;89.39;101581.94;5076581;28;1177;-88
2022/03/15 09:26:24;;;;;;;;;;;;;;;3.99;89.03;101581.50;5076220;28;995;-89
2022/03/15 09:28:50;;;;;;;;;;;;;;;4.05;88.88;101576.06;5076309;28;1339;-89
2022/03/15 09:31:16;;;;;;;;;;;;;;;4.02;88.38;101576.47;5076553;28;1951;-89
2022/03/15 09:33:42;;;;;;;;;;;;;;;4.00;88.33;101573.16;5076200;28;1380;-88
2022/03/15 09:36:07;;;;;;;;;;;;;;;4.07;88.31;101570.44;5076247;28;1230;-89
2022/03/15 09:38:32;;;;;;;;;;;;;;;4.17;88.20;101570.81;5076250;28;965;-89
2022/03/15 09:41:01;;;;;;;;;;;;;;;4.26;87.86;101561.41;5094317;28;829;-89
2022/03/15 09:43:26;;;;;;;;;;;;;;;4.36;87.91;101560.97;5075838;28;1281;-88
2022/03/15 09:45:52;;;;;;;;;;;;;;;4.40;87.65;101563.06;5076143;28;1472;-89
2022/03/15 09:48:22;;;;;;;;;;;;;;;4.39;87.66;101571.41;5094397;28;896;-89
2022/03/15 09:50:48;;;;;;;;;;;;;;;4.44;87.59;101555.31;5076034;28;1902;-89
2022/03/15 09:53:14;;;;;;;;;;;;;;;4.48;87.62;101548.44;5075776;28;1377;-89
2022/03/15 09:55:40;;;;;;;;;;;;;;;4.54;87.42;101551.09;5076173;28;1203;-89
2022/03/15 09:58:05;;;;;;;;;;;;;;;4.62;87.53;101543.78;5094071;28;916;-89
2022/03/15 10:00:31;;;;;;;;;;;;;;;4.67;87.15;101541.25;5075952;28;1165;-89
2022/03/15 10:02:56;;;;;;;;;;;;;;;4.70;87.22;101538.09;5075856;28;1250;-88
2022/03/15 10:05:21;;;;;;;;;;;;;;;4.76;86.97;101538.09;5075645;28;872;-89
2022/03/15 10:07:47;;;;;;;;;;;;;;;4.78;86.80;101532.41;5075943;28;1329;-89
2022/03/15 10:10:13;;;;;;;;;;;;;;;4.83;86.88;101533.44;5079315;28;2250;-88
2022/03/15 10:12:39;;;;;;;;;;;;;;;4.91;87.17;101535.06;5079953;28;1329;-89
2022/03/15 10:15:14;;;;;;;;;;;;;;;4.93;87.02;101522.94;5079530;28;1188;-88
2022/03/15 10:17:42;;;;;;;;;;;;;;;5.01;86.77;101526.47;5079925;28;1245;-89
2022/03/15 10:20:08;;;;;;;;;;;;;;;5.05;86.59;101523.06;5098193;28;984;-89
2022/03/15 10:22:33;;;;;;;;;;;;;;;5.10;86.94;101508.88;5079763;28;1248;-89
2022/03/15 10:24:59;;;;;;;;;;;;;;;5.17;86.87;101501.50;5079479;28;1235;-89
2022/03/15 10:27:25;;;;;;;;;;;;;;;5.24;86.61;101507.72;5097974;28;1020;-89
2022/03/15 10:29:51;;;;;;;;;;;;;;;5.30;86.60;101496.78;5097805;28;1965;-89
2022/03/15 10:32:16;;;;;;;;;;;;;;;5.35;86.15;101498.03;5079785;28;1262;-89
2022/03/15 10:34:41;;;;;;;;;;;;;;;5.38;86.26;101486.69;5079478;28;1401;-89
2022/03/15 10:37:06;;;;;;;;;;;;;;;5.42;86.46;101480.63;5079479;28;1328;-88
2022/03/15 10:39:32;;;;;;;;;;;;;;;5.45;86.17;101473.88;5079337;28;1227;-89
2022/03/15 10:42:01;;;;;;;;;;;;;;;5.46;86.40;101473.69;5097467;28;1195;-88
2022/03/15 10:44:28;;;;;;;;;;;;;;;5.52;86.51;101469.25;5079270;28;1521;-89
2022/03/15 10:47:05;;;;;;;;;;;;;;;5.54;86.22;101476.09;5079565;28;1222;-89
2022/03/15 10:49:31;;;;;;;;;;;;;;;5.60;86.49;101464.38;5079397;28;1890;-89
2022/03/15 10:51:57;;;;;;;;;;;;;;;5.64;86.06;101462.84;5079250;28;1239;-89
2022/03/15 10:54:23;;;;;;;;;;;;;;;5.63;85.84;101457.63;5078962;28;1198;-89
2022/03/15 10:56:53;;;;;;;;;;;;;;;5.66;85.81;101454.47;5079679;28;1159;-89
2022/03/15 10:59:19;;;;;;;;;;;;;;;5.71;85.65;101450.03;5079241;28;1298;-89
2022/03/15 11:01:46;;;;;;;;;;;;;;;5.76;86.19;101453.97;5079344;28;1278;-89
2022/03/15 11:04:12;;;;;;;;;;;;;;;5.79;86.53;101442.63;5078855;28;1290;-88
2022/03/15 11:06:38;;;;;;;;;;;;;;;5.82;86.13;101444.91;5097925;28;848;-88
2022/03/15 11:09:14;;;;;;;;;;;;;;;5.82;85.99;101434.88;5079041;28;1906;-89
2022/03/15 11:11:42;;;;;;;;;;;;;;;5.87;86.32;101436.94;5078980;28;1218;-88
2022/03/15 11:14:07;;;;;;;;;;;;;;;5.91;86.03;101427.28;5078313;28;1267;-89
2022/03/15 11:16:36;;;;;;;;;;;;;;;5.93;85.59;101425.16;5079037;28;849;-88
2022/03/15 11:19:02;;;;;;;;;;;;;;;6.00;85.61;101421.31;5078720;28;1281;-89
2022/03/15 11:21:29;;;;;;;;;;;;;;;6.09;85.91;101416.41;5096013;28;1161;-89
2022/03/15 11:23:56;;;;;;;;;;;;;;;6.14;86.02;101413.81;5078299;28;1286;-89
2022/03/15 11:26:21;;;;;;;;;;;;;;;6.21;85.45;101411.03;5078944;28;1195;-88
2022/03/15 11:28:47;;;;;;;;;;;;;;;6.22;85.38;101416.22;5079057;28;1303;-89
2022/03/15 11:31:19;;;;;;;;;;;;;;;6.23;85.71;101417.88;5079016;28;1897;-89
2022/03/15 11:33:47;;;;;;;;;;;;;;;6.26;85.51;101405.72;5079324;28;1342;-89
2022/03/15 11:36:12;;;;;;;;;;;;;;;6.29;85.85;101400.66;5078634;28;1376;-88
2022/03/15 11:38:38;;;;;;;;;;;;;;;6.35;85.23;101402.47;5078715;28;1148;-89
2022/03/15 11:41:03;;;;;;;;;;;;;;;6.39;85.52;101395.47;5078332;28;1314;-88
2022/03/15 11:43:50;;;;;;;;;;;;;;;6.48;84.86;101385.09;5078398;28;1333;-89
2022/03/15 11:46:35;;;;;;;;;;;;;;;6.58;84.99;101382.66;5078607;28;1225;-88
2022/03/15 11:49:19;;;;;;;;;;;;;;;6.59;85.08;101378.03;5096632;28;1061;-88
2022/03/15 11:51:44;;;;;;;;;;;;;;;6.63;84.65;101374.66;5078106;28;1340;-88
2022/03/15 11:54:19;;;;;;;;;;;;;;;6.64;84.66;101370.84;5077556;28;1240;-89
2022/03/15 11:56:48;;;;;;;;;;;;;;;6.67;83.95;101355.94;5077871;28;1191;-90
2022/03/15 11:59:14;;;;;;;;;;;;;;;6.69;84.02;101356.53;5078180;28;1190;-89
2022/03/15 12:01:43;;;;;;;;;;;;;;;6.72;83.05;101350.66;5096723;28;932;-88
2022/03/15 12:04:09;;;;;;;;;;;;;;;6.76;82.64;101346.38;5095594;28;1282;-89
2022/03/15 12:06:35;;;;;;;;;;;;;;;6.79;82.19;101337.75;5077897;28;1218;-89
2022/03/15 12:09:01;;;;;;;;;;;;;;;6.90;82.26;101333.38;5077553;28;1446;-89
2022/03/15 12:11:27;;;;;;;;;;;;;;;7.02;82.19;101326.03;5077719;28;1898;-89
2022/03/15 12:14:00;;;;;;;;;;;;;;;7.05;82.41;101318.25;5095694;28;1201;-89
2022/03/15 12:16:33;;;;;;;;;;;;;;;7.09;82.17;101315.88;5077689;28;1373;-88
2022/03/15 12:19:05;;;;;;;;;;;;;;;7.08;81.82;101312.31;5077960;28;1268;-89
2022/03/15 12:21:30;;;;;;;;;;;;;;;7.12;81.69;101308.06;5078283;28;1366;-89
2022/03/15 12:23:55;;;;;;;;;;;;;;;7.15;81.52;101301.28;5077719;28;1340;-89
2022/03/15 12:26:26;;;;;;;;;;;;;;;7.17;81.68;101294.53;5063967;28;1428;-89
2022/03/15 12:28:54;;;;;;;;;;;;;;;7.20;81.95;101296.81;5076450;28;1622;-89
2022/03/15 12:31:20;;;;;;;;;;;;;;;7.21;81.61;101287.56;5074040;28;1886;-89
2022/03/15 12:33:59;;;;;;;;;;;;;;;7.23;81.76;101277.25;5094899;28;1219;-89
2022/03/15 12:36:34;;;;;;;;;;;;;;;7.22;81.79;101275.63;5096280;28;1045;-89
2022/03/15 12:39:06;;;;;;;;;;;;;;;7.20;81.95;101260.56;5096270;28;1078;-89
2022/03/15 12:41:32;;;;;;;;;;;;;;;7.23;81.80;101249.19;5078113;28;1179;-89
2022/03/15 12:43:57;;;;;;;;;;;;;;;7.20;81.83;101247.78;5078002;28;1220;-89
2022/03/15 12:46:30;;;;;;;;;;;;;;;7.22;82.11;101247.56;5077540;28;1584;-89
2022/03/15 12:48:55;;;;;;;;;;;;;;;7.23;82.13;101243.75;5077810;28;1223;-89
2022/03/15 12:51:20;;;;;;;;;;;;;;;7.27;82.45;101235.94;5077678;28;1890;-90